createdAt,value
2023-04-29T00:00:40.943Z,48.90
2023-04-29T00:01:41.879Z,44.28
2023-04-29T00:02:40.937Z,50.53
2023-04-29T00:03:41.021Z,44.29
2023-04-29T00:04:40.967Z,49.20
2023-04-29T00:05:40.906Z,49.44
2023-04-29T00:06:40.836Z,51.13
2023-04-29T00:07:40.819Z,44.34
2023-04-29T00:08:42.402Z,43.76
2023-04-29T00:09:41.822Z,43.53
2023-04-29T00:10:40.828Z,44.15
2023-04-29T00:11:40.829Z,52.88
2023-04-29T00:12:40.984Z,56.76
2023-04-29T00:13:40.872Z,50.25
2023-04-29T00:14:40.768Z,54.99
2023-04-29T00:15:40.804Z,43.46
2023-04-29T00:16:40.798Z,43.51
2023-04-29T00:17:40.796Z,54.80
2023-04-29T00:18:40.742Z,56.76
2023-04-29T00:19:40.739Z,50.24
2023-04-29T00:20:40.743Z,58.68
2023-04-29T00:21:40.758Z,53.24
2023-04-29T00:22:40.844Z,45.07
2023-04-29T00:23:40.699Z,48.56
2023-04-29T00:24:40.731Z,59.08
2023-04-29T00:25:40.686Z,54.07
2023-04-29T00:26:40.678Z,60.63
2023-04-29T00:27:40.683Z,49.62
2023-04-29T00:28:40.684Z,44.63
2023-04-29T00:29:40.677Z,50.71
2023-04-29T00:30:40.679Z,46.33
2023-04-29T00:31:40.662Z,52.55
2023-04-29T00:32:40.709Z,64.09
2023-04-29T00:33:40.631Z,55.23
2023-04-29T00:34:40.642Z,55.54
2023-04-29T00:35:41.407Z,45.33
2023-04-29T00:36:40.647Z,45.02
2023-04-29T00:37:41.414Z,59.31
2023-04-29T00:38:40.591Z,49.06
2023-04-29T00:39:40.587Z,50.27
2023-04-29T00:40:41.414Z,51.66
2023-04-29T00:41:40.629Z,54.31
2023-04-29T00:42:40.602Z,51.99
2023-04-29T00:43:40.574Z,61.35
2023-04-29T00:44:40.556Z,55.60
2023-04-29T00:45:40.610Z,43.80
2023-04-29T00:46:40.615Z,42.89
2023-04-29T00:47:40.616Z,43.33
2023-04-29T00:48:40.527Z,57.69
2023-04-29T00:49:40.542Z,51.41
2023-04-29T00:50:40.542Z,47.59
2023-04-29T00:51:40.495Z,50.39
2023-04-29T00:52:40.540Z,54.50
2023-04-29T00:53:40.486Z,48.67
2023-04-29T00:54:41.395Z,44.21
2023-04-29T00:55:40.473Z,48.96
2023-04-29T00:56:40.510Z,52.91
2023-04-29T00:57:40.504Z,54.29
2023-04-29T00:58:40.453Z,52.04
2023-04-29T00:59:40.455Z,54.16
2023-04-29T01:00:40.452Z,48.48
2023-04-29T01:01:40.486Z,42.77
2023-04-29T01:02:40.464Z,48.95
2023-04-29T01:03:40.547Z,50.76
2023-04-29T01:04:40.445Z,47.31
2023-04-29T01:05:40.405Z,52.46
2023-04-29T01:06:40.392Z,48.80
2023-04-29T01:07:40.379Z,42.58
2023-04-29T01:08:40.371Z,42.91
2023-04-29T01:09:40.428Z,49.76
2023-04-29T01:10:40.396Z,49.50
2023-04-29T01:11:40.374Z,49.60
2023-04-29T01:12:40.370Z,43.72
2023-04-29T01:13:40.355Z,56.17
2023-04-29T01:14:40.352Z,44.27
2023-04-29T01:15:40.398Z,56.79
2023-04-29T01:16:40.356Z,62.60
2023-04-29T01:17:40.494Z,46.34
2023-04-29T01:18:40.313Z,42.74
2023-04-29T01:19:40.310Z,50.69
2023-04-29T01:20:40.448Z,42.81
2023-04-29T01:21:40.923Z,52.09
2023-04-29T01:22:40.269Z,43.63
2023-04-29T01:23:40.258Z,49.79
2023-04-29T01:24:40.252Z,42.87
2023-04-29T01:25:40.265Z,42.79
2023-04-29T01:26:40.273Z,48.53
2023-04-29T01:27:40.266Z,44.30
2023-04-29T01:28:40.242Z,54.90
2023-04-29T01:29:40.219Z,48.98
2023-04-29T01:30:40.221Z,53.19
2023-04-29T01:31:40.611Z,44.82
2023-04-29T01:32:40.357Z,53.74
2023-04-29T01:33:40.198Z,46.15
2023-04-29T01:34:40.183Z,43.77
2023-04-29T01:35:40.196Z,50.53
2023-04-29T01:36:40.185Z,44.21
2023-04-29T01:37:40.191Z,55.17
2023-04-29T01:38:40.157Z,44.67
2023-04-29T01:39:40.182Z,52.76
2023-04-29T01:40:40.159Z,42.74
2023-04-29T01:41:40.166Z,42.86
2023-04-29T01:42:40.127Z,57.53
2023-04-29T01:43:40.135Z,43.19
2023-04-29T01:44:40.119Z,55.43
2023-04-29T01:45:40.107Z,47.20
2023-04-29T01:46:40.197Z,42.80
2023-04-29T01:47:40.118Z,42.94
2023-04-29T01:48:40.095Z,43.16
2023-04-29T01:49:40.086Z,58.72
2023-04-29T01:50:40.913Z,43.54
2023-04-29T01:51:40.074Z,45.01
2023-04-29T01:52:40.107Z,48.32
2023-04-29T01:53:40.054Z,48.17
2023-04-29T01:54:40.049Z,55.61
2023-04-29T01:55:40.028Z,43.64
2023-04-29T01:56:40.015Z,44.07
2023-04-29T01:57:41.244Z,44.15
2023-04-29T01:58:40.137Z,49.68
2023-04-29T01:59:40.005Z,50.91
2023-04-29T02:00:40.093Z,51.10
2023-04-29T02:01:40.016Z,43.87
2023-04-29T02:02:40.133Z,53.45
2023-04-29T02:03:40.115Z,49.77
2023-04-29T02:04:40.043Z,42.99
2023-04-29T02:05:39.978Z,43.25
2023-04-29T02:06:39.962Z,48.48
2023-04-29T02:07:39.943Z,51.17
2023-04-29T02:08:39.978Z,43.10
2023-04-29T02:09:40.018Z,51.89
2023-04-29T02:10:39.955Z,44.95
2023-04-29T02:11:39.941Z,52.19
2023-04-29T02:12:39.901Z,44.22
2023-04-29T02:13:39.899Z,50.08
2023-04-29T02:14:39.905Z,44.10
2023-04-29T02:15:39.872Z,44.48
2023-04-29T02:16:39.890Z,56.94
2023-04-29T02:17:40.433Z,43.49
2023-04-29T02:18:39.892Z,42.93
2023-04-29T02:19:39.885Z,45.06
2023-04-29T02:20:39.870Z,46.69
2023-04-29T02:21:39.844Z,43.21
2023-04-29T02:22:40.423Z,44.34
2023-04-29T02:23:39.816Z,50.04
2023-04-29T02:24:39.856Z,46.84
2023-04-29T02:25:40.488Z,46.42
2023-04-29T02:26:39.793Z,46.25
2023-04-29T02:27:39.782Z,50.40
2023-04-29T02:28:39.790Z,44.67
2023-04-29T02:29:39.793Z,45.30
2023-04-29T02:30:39.801Z,45.45
2023-04-29T02:31:39.785Z,45.74
2023-04-29T02:32:39.815Z,46.28
2023-04-29T02:33:39.755Z,46.04
2023-04-29T02:34:39.722Z,46.68
2023-04-29T02:35:39.722Z,59.67
2023-04-29T02:36:39.752Z,46.58
2023-04-29T02:37:39.719Z,45.76
2023-04-29T02:38:39.703Z,52.41
2023-04-29T02:39:39.689Z,46.19
2023-04-29T02:40:39.689Z,50.09
2023-04-29T02:41:40.910Z,48.15
2023-04-29T02:42:39.684Z,49.88
2023-04-29T02:43:39.676Z,54.99
2023-04-29T02:44:39.710Z,51.73
2023-04-29T02:45:39.667Z,51.94
2023-04-29T02:46:39.673Z,52.73
2023-04-29T02:47:39.726Z,50.59
2023-04-29T02:48:39.613Z,49.12
2023-04-29T02:49:39.650Z,49.39
2023-04-29T02:50:39.592Z,59.40
2023-04-29T02:51:39.649Z,48.78
2023-04-29T02:52:39.644Z,48.00
2023-04-29T02:53:39.620Z,47.84
2023-04-29T02:54:39.592Z,48.65
2023-04-29T02:55:39.579Z,48.73
2023-04-29T02:56:39.609Z,51.66
2023-04-29T02:57:39.613Z,47.90
2023-04-29T02:58:39.569Z,47.09
2023-04-29T02:59:39.559Z,52.82
2023-04-29T03:00:39.575Z,47.45
2023-04-29T03:01:39.649Z,52.37
2023-04-29T03:02:39.615Z,58.65
2023-04-29T03:03:39.670Z,56.90
2023-04-29T03:04:39.529Z,50.71
2023-04-29T03:05:39.503Z,53.37
2023-04-29T03:06:39.499Z,48.83
2023-04-29T03:07:39.524Z,49.50
2023-04-29T03:08:39.480Z,49.92
2023-04-29T03:09:39.466Z,54.52
2023-04-29T03:10:41.463Z,55.17
2023-04-29T03:11:40.464Z,53.44
2023-04-29T03:12:39.599Z,56.49
2023-04-29T03:13:39.461Z,53.78
2023-04-29T03:14:39.438Z,51.17
2023-04-29T03:15:39.426Z,58.33
2023-04-29T03:16:39.457Z,53.91
2023-04-29T03:17:39.966Z,52.21
2023-04-29T03:18:39.442Z,51.66
2023-04-29T03:19:39.931Z,54.77
2023-04-29T03:20:39.397Z,56.54
2023-04-29T03:21:39.387Z,60.22
2023-04-29T03:22:39.364Z,53.26
2023-04-29T03:23:39.389Z,58.69
2023-04-29T03:24:39.352Z,60.74
2023-04-29T03:25:39.384Z,54.56
2023-04-29T03:26:39.341Z,54.95
2023-04-29T03:27:39.351Z,54.87
2023-04-29T03:28:39.366Z,57.77
2023-04-29T03:29:39.299Z,61.26
2023-04-29T03:30:39.334Z,55.32
2023-04-29T03:31:39.366Z,58.74
2023-04-29T03:32:39.343Z,56.44
2023-04-29T03:33:39.283Z,56.16
2023-04-29T03:34:39.286Z,57.89
2023-04-29T03:35:39.299Z,57.19
2023-04-29T03:36:39.245Z,53.34
2023-04-29T03:37:39.333Z,58.68
2023-04-29T03:38:39.253Z,65.21
2023-04-29T03:39:39.945Z,59.58
2023-04-29T03:40:39.319Z,65.88
2023-04-29T03:41:39.231Z,59.84
2023-04-29T03:42:39.261Z,61.53
2023-04-29T03:43:39.208Z,57.61
2023-04-29T03:44:39.200Z,65.22
2023-04-29T03:45:39.948Z,57.55
2023-04-29T03:46:39.211Z,51.79
2023-04-29T04:03:23.485Z,58.96
2023-04-29T04:04:23.708Z,58.60
2023-04-29T04:05:24.543Z,50.95
2023-04-29T04:06:24.532Z,59.94
2023-04-29T04:07:24.518Z,51.31
2023-04-29T04:08:24.619Z,53.90
2023-04-29T04:09:24.504Z,56.82
2023-04-29T04:10:24.511Z,49.16
2023-04-29T04:11:24.498Z,59.40
2023-04-29T04:12:24.491Z,62.27
2023-04-29T04:13:24.518Z,55.24
2023-04-29T04:14:24.471Z,59.04
2023-04-29T04:15:24.456Z,55.24
2023-04-29T04:16:25.527Z,54.46
2023-04-29T04:17:25.197Z,53.46
2023-04-29T04:18:24.444Z,48.85
2023-04-29T04:19:24.503Z,55.67
2023-04-29T04:20:24.452Z,57.81
2023-04-29T04:21:24.446Z,54.16
2023-04-29T04:22:24.411Z,55.06
2023-04-29T04:23:24.427Z,59.77
2023-04-29T04:24:24.433Z,53.65
2023-04-29T04:25:24.400Z,59.36
2023-04-29T04:26:24.367Z,56.72
2023-04-29T04:27:24.395Z,59.09
2023-04-29T04:28:24.358Z,64.75
2023-04-29T04:29:24.426Z,55.05
2023-04-29T04:30:24.353Z,64.98
2023-04-29T04:31:24.362Z,55.47
2023-04-29T04:32:24.406Z,55.62
2023-04-29T04:33:24.321Z,57.45
2023-04-29T04:34:24.332Z,61.40
2023-04-29T04:35:24.325Z,54.49
2023-04-29T04:36:24.305Z,51.82
2023-04-29T04:37:24.322Z,56.74
2023-04-29T04:38:24.321Z,54.56
2023-04-29T04:39:24.283Z,53.42
2023-04-29T04:40:24.294Z,55.90
2023-04-29T04:41:24.283Z,60.68
2023-04-29T04:42:24.350Z,64.35
2023-04-29T04:43:24.275Z,61.74
2023-04-29T04:44:24.233Z,60.23
2023-04-29T04:45:24.322Z,55.37
2023-04-29T04:46:24.221Z,54.49
2023-04-29T04:47:24.304Z,61.25
2023-04-29T04:48:56.181Z,50.06
2023-04-29T04:49:24.214Z,50.20
2023-04-29T04:50:24.194Z,63.44
2023-04-29T04:51:24.190Z,52.41
2023-04-29T04:52:24.206Z,59.26
2023-04-29T04:53:24.160Z,62.80
2023-04-29T04:54:24.198Z,62.67
2023-04-29T04:55:24.168Z,58.66
2023-04-29T04:56:24.149Z,54.79
2023-04-29T04:57:24.145Z,58.60
2023-04-29T04:58:24.139Z,47.90
2023-04-29T04:59:24.129Z,56.31
2023-04-29T05:00:24.140Z,54.05
2023-04-29T05:01:24.142Z,56.75
2023-04-29T05:02:24.305Z,58.87
2023-04-29T05:03:24.265Z,59.24
2023-04-29T05:04:25.355Z,63.14
2023-04-29T05:05:24.105Z,49.02
2023-04-29T05:06:24.094Z,63.63
2023-04-29T05:07:24.066Z,59.21
2023-04-29T05:08:24.050Z,59.55
2023-04-29T05:09:24.077Z,56.96
2023-04-29T05:10:24.044Z,61.72
2023-04-29T05:11:24.034Z,53.87
2023-04-29T05:12:24.038Z,56.63
2023-04-29T05:13:24.010Z,56.47
2023-04-29T05:14:24.042Z,59.28
2023-04-29T05:15:24.008Z,58.20
2023-04-29T05:16:24.002Z,62.40
2023-04-29T05:17:24.027Z,59.98
2023-04-29T05:18:24.001Z,60.70
2023-04-29T05:19:23.966Z,58.93
2023-04-29T05:20:24.670Z,60.93
2023-04-29T05:21:23.966Z,54.54
2023-04-29T05:22:23.993Z,62.49
2023-04-29T05:23:23.943Z,57.05
2023-04-29T05:24:23.972Z,67.51
2023-04-29T05:25:23.950Z,56.66
2023-04-29T05:26:23.970Z,63.54
2023-04-29T05:27:23.893Z,63.02
2023-04-29T05:28:23.943Z,62.49
2023-04-29T05:29:23.906Z,62.80
2023-04-29T05:30:23.873Z,61.07
2023-04-29T05:31:23.973Z,64.38
2023-04-29T05:32:23.979Z,63.68
2023-04-29T05:33:23.859Z,60.06
2023-04-29T05:34:24.691Z,64.12
2023-04-29T05:35:23.862Z,67.13
2023-04-29T05:36:23.821Z,65.41
2023-04-29T05:37:23.862Z,63.26
2023-04-29T05:38:23.846Z,62.67
2023-04-29T05:39:23.818Z,66.21
2023-04-29T05:40:23.792Z,64.76
2023-04-29T05:41:23.790Z,61.68
2023-04-29T05:42:23.773Z,62.56
2023-04-29T05:43:23.824Z,63.18
2023-04-29T05:44:23.787Z,57.25
2023-04-29T05:45:23.767Z,62.12
2023-04-29T05:46:23.795Z,67.46
2023-04-29T05:47:23.779Z,63.83
2023-04-29T05:48:23.733Z,58.91
2023-04-29T05:49:23.741Z,66.01
2023-04-29T05:50:23.711Z,58.71
2023-04-29T05:51:23.766Z,59.83
2023-04-29T05:52:23.713Z,64.45
2023-04-29T05:53:24.745Z,57.07
2023-04-29T05:54:23.697Z,58.61
2023-04-29T05:55:23.689Z,63.69
2023-04-29T05:56:23.668Z,66.12
2023-04-29T05:57:23.695Z,64.39
2023-04-29T05:58:23.652Z,61.21
2023-04-29T05:59:23.651Z,56.75
2023-04-29T06:00:23.662Z,65.15
2023-04-29T06:01:23.629Z,67.37
2023-04-29T06:02:23.802Z,63.38
2023-04-29T06:03:23.895Z,64.53
2023-04-29T06:04:23.772Z,53.96
2023-04-29T06:05:23.988Z,60.46
2023-04-29T06:06:23.661Z,59.33
2023-04-29T06:07:23.602Z,61.09
2023-04-29T06:08:23.565Z,66.44
2023-04-29T06:09:27.615Z,61.43
2023-04-29T06:10:24.571Z,65.38
2023-04-29T06:11:23.556Z,61.20
2023-04-29T06:12:23.551Z,66.34
2023-04-29T06:13:23.549Z,64.53
2023-04-29T06:14:23.558Z,60.18
2023-04-29T06:15:23.546Z,61.12
2023-04-29T06:16:23.578Z,59.61
2023-04-29T06:17:23.531Z,60.85
2023-04-29T06:18:23.512Z,58.19
2023-04-29T06:19:23.503Z,64.70
2023-04-29T06:20:23.503Z,55.94
2023-04-29T06:21:23.506Z,65.54
2023-04-29T06:22:23.482Z,63.06
2023-04-29T06:23:23.470Z,57.63
2023-04-29T06:24:23.480Z,69.17
2023-04-29T06:25:23.452Z,65.27
2023-04-29T06:26:23.436Z,63.38
2023-04-29T06:27:23.436Z,64.63
2023-04-29T06:28:23.470Z,58.97
2023-04-29T06:29:23.458Z,57.03
2023-04-29T06:30:23.412Z,66.87
2023-04-29T06:31:23.466Z,65.74
2023-04-29T06:32:23.551Z,61.69
2023-04-29T06:33:23.387Z,63.05
2023-04-29T06:34:23.404Z,68.76
2023-04-29T06:35:23.396Z,63.84
2023-04-29T06:36:23.358Z,63.95
2023-04-29T06:37:23.355Z,64.77
2023-04-29T06:38:23.330Z,58.76
2023-04-29T06:39:23.380Z,66.11
2023-04-29T06:40:23.343Z,68.49
2023-04-29T06:41:23.321Z,63.49
2023-04-29T06:42:23.320Z,61.87
2023-04-29T06:43:23.747Z,62.09
2023-04-29T06:44:23.310Z,67.21
2023-04-29T06:45:23.764Z,65.98
2023-04-29T06:46:23.327Z,67.48
2023-04-29T06:47:23.268Z,64.18
2023-04-29T06:48:23.270Z,62.76
2023-04-29T06:49:24.227Z,67.92
2023-04-29T06:50:23.270Z,62.21
2023-04-29T06:51:23.238Z,67.28
2023-04-29T06:52:23.246Z,66.47
2023-04-29T06:53:23.206Z,65.83
2023-04-29T06:54:24.137Z,66.91
2023-04-29T06:55:23.238Z,63.61
2023-04-29T06:56:23.214Z,58.57
2023-04-29T06:57:23.186Z,68.13
2023-04-29T06:58:23.186Z,69.89
2023-04-29T06:59:23.244Z,66.15
2023-04-29T07:00:23.176Z,65.40
2023-04-29T07:01:23.213Z,60.32
2023-04-29T07:02:23.257Z,66.09
2023-04-29T07:03:23.312Z,65.74
2023-04-29T07:04:23.209Z,62.67
2023-04-29T07:05:23.131Z,58.31
2023-04-29T07:06:23.176Z,62.63
2023-04-29T07:07:23.105Z,61.62
2023-04-29T07:08:23.118Z,66.35
2023-04-29T07:09:23.111Z,63.77
2023-04-29T07:10:24.105Z,63.00
2023-04-29T07:11:23.134Z,62.60
2023-04-29T07:12:23.081Z,61.58
2023-04-29T07:13:23.073Z,67.97
2023-04-29T07:14:23.096Z,66.22
2023-04-29T07:15:23.106Z,67.59
2023-04-29T07:16:23.085Z,70.32
2023-04-29T07:17:23.080Z,66.28
2023-04-29T07:18:23.078Z,65.54
2023-04-29T07:19:23.077Z,69.29
2023-04-29T07:20:23.056Z,61.76
2023-04-29T07:21:23.044Z,53.71
2023-04-29T07:22:23.022Z,62.42
2023-04-29T07:23:23.004Z,65.89
2023-04-29T07:24:22.981Z,64.67
2023-04-29T07:25:22.993Z,63.34
2023-04-29T07:26:22.974Z,65.61
2023-04-29T07:27:22.997Z,64.62
2023-04-29T07:28:22.970Z,67.36
2023-04-29T07:29:22.936Z,68.29
2023-04-29T07:30:23.036Z,64.10
2023-04-29T07:31:23.088Z,67.70
2023-04-29T07:32:22.971Z,66.67
2023-04-29T07:33:22.939Z,60.45
2023-04-29T07:34:22.923Z,70.20
2023-04-29T07:35:22.905Z,64.93
2023-04-29T07:36:22.898Z,67.52
2023-04-29T07:37:22.888Z,58.78
2023-04-29T07:38:22.912Z,69.38
2023-04-29T07:39:22.894Z,62.65
2023-04-29T07:40:22.907Z,61.16
2023-04-29T07:41:22.872Z,66.87
2023-04-29T07:42:22.850Z,65.28
2023-04-29T07:43:22.894Z,64.45
2023-04-29T07:44:22.841Z,66.76
2023-04-29T07:45:22.835Z,68.12
2023-04-29T07:46:22.877Z,64.77
2023-04-29T07:47:22.817Z,68.81
2023-04-29T07:48:22.827Z,67.86
2023-04-29T07:49:22.818Z,66.93
2023-04-29T07:50:22.914Z,66.63
2023-04-29T07:51:22.760Z,67.42
2023-04-29T07:52:22.754Z,68.24
2023-04-29T07:53:22.763Z,62.46
2023-04-29T07:54:22.751Z,65.67
2023-04-29T07:55:22.761Z,68.49
2023-04-29T07:56:22.726Z,64.41
2023-04-29T07:57:22.723Z,68.22
2023-04-29T07:58:22.731Z,69.08
2023-04-29T07:59:22.722Z,57.29
2023-04-29T08:00:22.824Z,61.32
2023-04-29T08:01:22.741Z,72.17
2023-04-29T08:02:23.754Z,67.93
2023-04-29T08:03:22.975Z,66.41
2023-04-29T08:04:22.838Z,67.21
2023-04-29T08:05:22.940Z,55.20
2023-04-29T08:06:22.670Z,63.82
2023-04-29T08:07:22.666Z,65.72
2023-04-29T08:08:22.643Z,66.28
2023-04-29T08:09:22.632Z,66.56
2023-04-29T08:10:22.951Z,68.57
2023-04-29T08:11:22.643Z,67.68
2023-04-29T08:12:22.609Z,67.16
2023-04-29T08:13:22.609Z,67.30
2023-04-29T08:14:22.595Z,66.84
2023-04-29T08:15:22.927Z,67.15
2023-04-29T08:16:22.655Z,66.07
2023-04-29T08:17:22.620Z,66.91
2023-04-29T08:18:22.560Z,70.13
2023-04-29T08:19:22.550Z,63.66
2023-04-29T08:20:22.549Z,67.06
2023-04-29T08:21:22.564Z,66.92
2023-04-29T08:22:22.547Z,67.84
2023-04-29T08:23:22.505Z,67.88
2023-04-29T08:24:22.522Z,64.82
2023-04-29T08:25:22.502Z,74.09
2023-04-29T08:26:24.025Z,72.64
2023-04-29T08:27:22.541Z,62.95
2023-04-29T08:28:22.475Z,69.64
2023-04-29T08:29:22.481Z,72.21
2023-04-29T08:30:22.804Z,67.00
2023-04-29T08:31:22.542Z,67.35
2023-04-29T08:32:22.617Z,67.17
2023-04-29T08:33:22.443Z,67.95
2023-04-29T08:34:22.437Z,70.30
2023-04-29T08:35:22.452Z,68.11
2023-04-29T08:36:22.438Z,67.26
2023-04-29T08:37:22.468Z,67.38
2023-04-29T08:38:22.420Z,69.67
2023-04-29T08:39:22.449Z,63.41
2023-04-29T08:40:22.380Z,69.02
2023-04-29T08:41:22.790Z,66.44
2023-04-29T08:42:22.370Z,59.87
2023-04-29T08:43:22.394Z,69.84
2023-04-29T08:44:22.342Z,63.96
2023-04-29T08:45:22.371Z,69.15
2023-04-29T08:46:22.473Z,65.74
2023-04-29T08:47:22.414Z,60.19
2023-04-29T08:48:22.393Z,71.68
2023-04-29T08:49:22.316Z,67.34
2023-04-29T08:50:22.325Z,67.80
2023-04-29T08:51:22.325Z,68.50
2023-04-29T08:52:22.303Z,67.92
2023-04-29T08:53:22.307Z,70.38
2023-04-29T08:54:22.295Z,67.13
2023-04-29T08:55:22.256Z,64.57
2023-04-29T08:56:22.329Z,66.18
2023-04-29T08:57:22.274Z,60.60
2023-04-29T08:58:22.259Z,65.83
2023-04-29T08:59:22.238Z,63.14
2023-04-29T09:00:22.235Z,66.96
2023-04-29T09:01:22.363Z,64.88
2023-04-29T09:02:22.379Z,66.26
2023-04-29T09:03:22.334Z,67.93
2023-04-29T09:04:22.230Z,71.54
2023-04-29T09:05:22.175Z,66.25
2023-04-29T09:06:22.188Z,68.95
2023-04-29T09:07:22.207Z,66.70
2023-04-29T09:08:23.187Z,70.52
2023-04-29T09:09:22.169Z,61.38
2023-04-29T09:10:22.159Z,63.67
2023-04-29T09:11:22.151Z,66.68
2023-04-29T09:12:22.169Z,70.50
2023-04-29T09:13:22.152Z,69.62
2023-04-29T09:14:22.129Z,63.55
2023-04-29T09:15:22.192Z,67.35
2023-04-29T09:16:22.176Z,68.63
2023-04-29T09:17:22.135Z,70.53
2023-04-29T09:18:22.320Z,69.98
2023-04-29T09:19:22.147Z,67.33
2023-04-29T09:20:22.279Z,64.62
2023-04-29T09:21:23.019Z,69.29
2023-04-29T09:22:22.095Z,65.19
2023-04-29T09:23:22.112Z,65.64
2023-04-29T09:24:22.112Z,65.68
2023-04-29T09:25:22.093Z,67.69
2023-04-29T09:26:22.063Z,67.12
2023-04-29T09:27:22.094Z,65.85
2023-04-29T09:28:22.084Z,67.74
2023-04-29T09:29:22.727Z,65.72
2023-04-29T09:30:22.031Z,70.02
2023-04-29T09:31:22.038Z,67.18
2023-04-29T09:32:22.054Z,66.28
2023-04-29T09:33:21.983Z,69.11
2023-04-29T09:34:21.969Z,64.01
2023-04-29T09:35:22.036Z,69.51
2023-04-29T09:36:21.964Z,66.68
2023-04-29T09:37:22.001Z,64.45
2023-04-29T09:38:21.954Z,67.97
2023-04-29T09:39:21.927Z,65.48
2023-04-29T09:40:21.951Z,67.99
2023-04-29T09:41:21.934Z,65.48
2023-04-29T09:42:21.939Z,67.50
2023-04-29T09:43:21.905Z,65.40
2023-04-29T09:44:21.943Z,68.22
2023-04-29T09:45:22.075Z,69.77
2023-04-29T09:46:21.907Z,61.11
2023-04-29T09:47:21.918Z,68.58
2023-04-29T09:48:21.894Z,66.10
2023-04-29T09:49:21.877Z,66.83
2023-04-29T09:50:21.867Z,64.76
2023-04-29T09:51:21.898Z,66.08
2023-04-29T09:52:21.897Z,64.49
2023-04-29T09:53:21.869Z,60.07
2023-04-29T09:54:21.834Z,67.88
2023-04-29T09:55:21.862Z,64.00
2023-04-29T09:56:21.827Z,67.75
2023-04-29T09:57:21.852Z,65.79
2023-04-29T09:58:21.801Z,66.47
2023-04-29T09:59:21.827Z,66.75
2023-04-29T10:00:21.806Z,66.21
2023-04-29T10:01:21.815Z,69.39
2023-04-29T10:02:22.817Z,58.66
2023-04-29T10:03:21.865Z,68.09
2023-04-29T10:04:21.803Z,67.15
2023-04-29T10:05:21.782Z,63.13
2023-04-29T10:06:21.743Z,66.97
2023-04-29T10:07:21.779Z,67.22
2023-04-29T10:08:21.739Z,64.41
2023-04-29T10:09:21.816Z,67.09
2023-04-29T10:10:22.252Z,67.23
2023-04-29T10:11:22.289Z,68.08
2023-04-29T10:12:21.699Z,65.22
2023-04-29T10:13:21.681Z,69.82
2023-04-29T10:14:21.731Z,68.18
2023-04-29T10:15:21.661Z,65.56
2023-04-29T10:16:21.715Z,65.97
2023-04-29T10:17:21.657Z,61.14
2023-04-29T10:18:21.690Z,67.11
2023-04-29T10:19:21.686Z,66.96
2023-04-29T10:20:22.651Z,66.97
2023-04-29T10:21:21.616Z,63.92
2023-04-29T10:22:21.607Z,66.54
2023-04-29T10:23:21.601Z,64.48
2023-04-29T10:24:21.632Z,67.24
2023-04-29T10:25:21.697Z,67.05
2023-04-29T10:26:21.608Z,66.71
2023-04-29T10:27:22.225Z,66.86
2023-04-29T10:28:21.554Z,63.45
2023-04-29T10:29:21.569Z,66.38
2023-04-29T10:30:21.596Z,66.46
2023-04-29T10:31:21.615Z,67.64
2023-04-29T10:32:21.603Z,68.72
2023-04-29T10:33:21.557Z,67.38
2023-04-29T10:34:21.514Z,67.48
2023-04-29T10:35:21.551Z,67.57
2023-04-29T10:36:21.552Z,68.12
2023-04-29T10:37:21.505Z,64.88
2023-04-29T10:38:21.489Z,61.62
2023-04-29T10:39:21.500Z,63.37
2023-04-29T10:40:21.576Z,67.59
2023-04-29T10:41:21.473Z,66.14
2023-04-29T10:42:21.462Z,69.19
2023-04-29T10:43:21.470Z,64.98
2023-04-29T10:44:21.491Z,65.37
2023-04-29T10:45:21.738Z,66.08
2023-04-29T10:46:21.559Z,64.29
2023-04-29T10:47:21.599Z,62.22
2023-04-29T10:48:22.114Z,64.84
2023-04-29T10:49:22.490Z,70.11
2023-04-29T10:50:21.389Z,58.83
2023-04-29T10:51:53.337Z,66.18
2023-04-29T10:52:22.256Z,67.24
2023-04-29T10:53:21.378Z,67.71
2023-04-29T10:54:21.385Z,66.09
2023-04-29T10:55:21.353Z,67.64
2023-04-29T10:56:21.410Z,64.76
2023-04-29T10:57:21.349Z,66.16
2023-04-29T10:58:21.365Z,62.73
2023-04-29T10:59:21.324Z,63.52
2023-04-29T11:00:21.574Z,65.13
2023-04-29T11:01:21.409Z,68.32
2023-04-29T11:02:21.359Z,64.51
2023-04-29T11:03:21.400Z,61.84
2023-04-29T11:04:21.340Z,63.70
2023-04-29T11:05:21.310Z,66.43
2023-04-29T11:06:21.294Z,66.39
2023-04-29T11:07:22.266Z,67.18
2023-04-29T11:08:21.248Z,65.85
2023-04-29T11:09:21.278Z,66.28
2023-04-29T11:10:21.239Z,63.04
2023-04-29T11:11:21.250Z,69.28
2023-04-29T11:12:22.613Z,67.08
2023-04-29T11:13:21.218Z,68.56
2023-04-29T11:14:21.214Z,68.09
2023-04-29T11:15:21.200Z,60.71
2023-04-29T11:16:21.217Z,65.25
2023-04-29T11:17:21.447Z,65.83
2023-04-29T11:18:21.180Z,65.86
2023-04-29T11:19:21.224Z,64.84
2023-04-29T11:20:21.310Z,64.29
2023-04-29T11:21:21.159Z,65.01
2023-04-29T11:22:21.206Z,66.41
2023-04-29T11:23:21.164Z,64.66
2023-04-29T11:24:21.157Z,65.46
2023-04-29T11:25:21.138Z,65.64
2023-04-29T11:26:21.137Z,63.89
2023-04-29T11:27:21.111Z,66.12
2023-04-29T11:28:21.142Z,66.05
2023-04-29T11:29:21.098Z,68.41
2023-04-29T11:30:21.132Z,64.51
2023-04-29T11:31:21.239Z,60.10
2023-04-29T11:32:21.127Z,64.79
2023-04-29T11:33:21.157Z,58.47
2023-04-29T11:34:21.055Z,61.93
2023-04-29T11:35:21.062Z,67.28
2023-04-29T11:36:21.056Z,65.95
2023-04-29T11:37:21.035Z,63.42
2023-04-29T11:38:21.050Z,58.25
2023-04-29T11:39:21.262Z,66.93
2023-04-29T11:40:21.574Z,63.20
2023-04-29T11:41:21.003Z,59.48
2023-04-29T11:42:21.039Z,66.85
2023-04-29T11:43:20.985Z,64.23
2023-04-29T11:44:20.973Z,65.20
2023-04-29T11:45:20.988Z,67.80
2023-04-29T11:46:21.029Z,66.16
2023-04-29T11:47:20.979Z,62.37
2023-04-29T11:48:20.960Z,65.68
2023-04-29T11:49:20.926Z,65.76
2023-04-29T11:50:21.073Z,66.40
2023-04-29T11:51:20.931Z,62.10
2023-04-29T11:52:20.900Z,64.66
2023-04-29T11:53:20.930Z,64.87
2023-04-29T11:54:20.929Z,66.14
2023-04-29T11:55:20.952Z,64.87
2023-04-29T11:56:20.888Z,59.49
2023-04-29T11:57:20.904Z,59.02
2023-04-29T11:58:20.909Z,67.17
2023-04-29T11:59:20.873Z,59.80
2023-04-29T12:00:20.867Z,66.36
2023-04-29T12:01:20.887Z,66.57
2023-04-29T12:02:21.681Z,65.70
2023-04-29T12:03:21.050Z,67.30
2023-04-29T12:04:21.094Z,62.73
2023-04-29T12:05:21.014Z,61.83
2023-04-29T12:06:20.813Z,65.16
2023-04-29T12:07:20.830Z,68.07
2023-04-29T12:08:20.782Z,65.48
2023-04-29T12:09:20.781Z,68.45
2023-04-29T12:10:20.808Z,67.83
2023-04-29T12:11:20.773Z,65.77
2023-04-29T12:12:20.779Z,58.92
2023-04-29T12:13:20.764Z,63.67
2023-04-29T12:14:20.780Z,60.85
2023-04-29T12:15:20.740Z,66.17
2023-04-29T12:16:20.746Z,64.87
2023-04-29T12:17:20.708Z,68.08
2023-04-29T12:18:20.718Z,67.35
2023-04-29T12:19:20.709Z,64.40
2023-04-29T12:20:20.988Z,64.86
2023-04-29T12:21:20.762Z,65.75
2023-04-29T12:22:20.676Z,68.93
2023-04-29T12:23:20.661Z,64.97
2023-04-29T12:24:20.666Z,66.95
2023-04-29T12:25:20.678Z,65.46
2023-04-29T12:26:20.809Z,66.86
2023-04-29T12:27:20.659Z,66.20
2023-04-29T12:28:20.629Z,68.47
2023-04-29T12:29:20.637Z,64.46
2023-04-29T12:30:20.629Z,60.64
2023-04-29T12:31:21.413Z,67.51
2023-04-29T12:32:20.630Z,62.01
2023-04-29T12:33:21.620Z,67.66
2023-04-29T12:34:21.117Z,62.90
2023-04-29T12:35:20.589Z,65.64
2023-04-29T12:36:20.561Z,68.43
2023-04-29T12:37:20.566Z,64.94
2023-04-29T12:38:20.605Z,64.84
2023-04-29T12:39:20.579Z,67.21
2023-04-29T12:40:20.874Z,68.01
2023-04-29T12:41:20.546Z,64.56
2023-04-29T12:42:20.555Z,62.13
2023-04-29T12:43:20.545Z,68.53
2023-04-29T12:44:20.587Z,67.56
2023-04-29T12:45:20.516Z,65.34
2023-04-29T12:46:20.520Z,69.68
2023-04-29T12:47:20.518Z,67.69
2023-04-29T12:48:29.886Z,66.69
2023-04-29T12:49:22.524Z,65.42
2023-04-29T12:50:20.455Z,62.87
2023-04-29T12:51:20.471Z,66.13
2023-04-29T12:52:20.456Z,59.65
2023-04-29T12:53:20.427Z,68.78
2023-04-29T12:54:20.441Z,68.18
2023-04-29T12:55:20.420Z,66.99
2023-04-29T12:56:20.398Z,62.25
2023-04-29T12:57:20.406Z,66.38
2023-04-29T12:58:20.405Z,63.71
2023-04-29T12:59:20.425Z,64.61
2023-04-29T13:00:20.353Z,66.06
2023-04-29T13:01:21.457Z,69.03
2023-04-29T13:02:21.020Z,62.85
2023-04-29T13:03:22.265Z,65.77
2023-04-29T13:04:21.552Z,65.78
2023-04-29T13:05:20.333Z,66.04
2023-04-29T13:06:20.394Z,62.85
2023-04-29T13:07:20.330Z,63.62
2023-04-29T13:08:20.342Z,66.56